Time;durP1;ratioP1;P1;durP2;ratioP2;P2;SDS_P1;SDS_P2;PMS_P1;PMS_P2;Temp;Humidity;BMP_temperature;BMP_pressure;BME280_temperature;BME280_humidity;BME280_pressure;Samples;Min_cycle;Max_cycle;Signal;HPM_P1;HPM_P2
2023/03/28 00:01:29;;;;;;;2.90;1.27;;;;;;;;;;5032046;28;20026;-71
2023/03/28 00:03:56;;;;;;;0.88;0.80;;;;;;;;;;5031725;28;20542;-69
2023/03/28 00:06:23;;;;;;;4.65;1.15;;;;;;;;;;5031763;28;20021;-63
2023/03/28 00:08:50;;;;;;;2.78;1.20;;;;;;;;;;5031843;28;20035;-66
2023/03/28 00:11:20;;;;;;;2.92;1.02;;;;;;;;;;5031920;28;20083;-68
2023/03/28 00:13:46;;;;;;;;;;;;;;;;;;5032222;28;20064;-63
2023/03/28 00:16:13;;;;;;;3.38;1.40;;;;;;;;;;5033049;28;19917;-67
2023/03/28 00:18:39;;;;;;;2.33;1.00;;;;;;;;;;5035288;28;20083;-63
2023/03/28 00:21:18;;;;;;;1.38;1.00;;;;;;;;;;5035364;28;20029;-66
2023/03/28 00:23:44;;;;;;;2.03;1.20;;;;;;;;;;5035459;28;20067;-67
2023/03/28 00:26:12;;;;;;;2.40;1.10;;;;;;;;;;5035406;28;20063;-71
2023/03/28 00:28:38;;;;;;;1.63;0.98;;;;;;;;;;5035258;28;20033;-74
2023/03/28 00:31:05;;;;;;;1.45;1.02;;;;;;;;;;5035222;28;20103;-64
2023/03/28 00:33:31;;;;;;;1.60;1.00;;;;;;;;;;5035078;28;20033;-69
2023/03/28 00:35:56;;;;;;;6.22;2.15;;;;;;;;;;5035071;28;20025;-73
2023/03/28 00:38:21;;;;;;;1.50;1.00;;;;;;;;;;5035233;28;20053;-72
2023/03/28 00:40:47;;;;;;;1.08;0.98;;;;;;;;;;5035188;28;20056;-68
2023/03/28 00:43:13;;;;;;;2.25;1.17;;;;;;;;;;5034896;28;20025;-76
2023/03/28 00:45:40;;;;;;;1.45;1.00;;;;;;;;;;5034711;28;20022;-74
2023/03/28 00:48:12;;;;;;;3.53;2.70;;;;;;;;;;5034935;28;20029;-68
2023/03/28 00:50:41;;;;;;;2.67;1.25;;;;;;;;;;5034740;28;20069;-76
2023/03/28 00:53:12;;;;;;;1.25;0.85;;;;;;;;;;5034959;28;20080;-76
2023/03/28 00:55:45;;;;;;;3.53;1.40;;;;;;;;;;5034817;28;20017;-70
2023/03/28 00:58:16;;;;;;;3.63;1.50;;;;;;;;;;5034907;28;20032;-76
2023/03/28 01:00:45;;;;;;;1.60;1.33;;;;;;;;;;5034584;28;20071;-72
2023/03/28 01:03:12;;;;;;;1.75;1.42;;;;;;;;;;5034792;28;20036;-77
2023/03/28 01:05:39;;;;;;;2.88;1.55;;;;;;;;;;5034574;28;20021;-75
2023/03/28 01:08:37;;;;;;;3.55;1.75;;;;;;;;;;5034514;28;20029;-75
2023/03/28 01:11:02;;;;;;;1.35;0.93;;;;;;;;;;5018433;28;20459;-78
2023/03/28 01:13:33;;;;;;;1.35;1.20;;;;;;;;;;5016891;28;20021;-75
2023/03/28 01:16:01;;;;;;;1.45;1.05;;;;;;;;;;5034124;28;20113;-73
2023/03/28 01:18:29;;;;;;;1.42;1.00;;;;;;;;;;5034520;28;20037;-74
2023/03/28 01:21:00;;;;;;;2.60;1.48;;;;;;;;;;5034556;28;20032;-76
2023/03/28 01:23:47;;;;;;;3.17;1.30;;;;;;;;;;5033831;28;20033;-78
2023/03/28 01:26:18;;;;;;;1.80;1.25;;;;;;;;;;5033928;28;20490;-77
2023/03/28 01:29:04;;;;;;;2.30;1.17;;;;;;;;;;5033691;28;20034;-78
2023/03/28 01:31:58;;;;;;;1.73;1.30;;;;;;;;;;5034274;28;20033;-76
2023/03/28 01:34:24;;;;;;;1.80;1.20;;;;;;;;;;5050067;28;20033;-77
2023/03/28 01:36:58;;;;;;;1.85;1.42;;;;;;;;;;5054022;28;20104;-71
2023/03/28 01:39:39;;;;;;;2.00;1.40;;;;;;;;;;5054053;28;20474;-78
2023/03/28 01:42:33;;;;;;;3.42;1.35;;;;;;;;;;5053650;28;20181;-77
2023/03/28 01:45:18;;;;;;;1.55;1.20;;;;;;;;;;5053626;28;20071;-72
2023/03/28 01:48:24;;;;;;;3.05;1.30;;;;;;;;;;5053616;28;20063;-72
2023/03/28 01:51:27;;;;;;;1.42;1.08;;;;;;;;;;5053050;28;20494;-77
2023/03/28 01:54:11;;;;;;;2.10;1.33;;;;;;;;;;5053951;28;20025;-71
2023/03/28 01:57:12;;;;;;;4.68;1.40;;;;;;;;;;5053602;28;20029;-77
2023/03/28 01:59:46;;;;;;;1.70;1.27;;;;;;;;;;4972513;28;20092;-77
2023/03/28 02:02:26;;;;;;;2.40;1.65;;;;;;;;;;4972772;28;20038;-76
2023/03/28 02:04:54;;;;;;;2.13;1.35;;;;;;;;;;4972722;28;20476;-78
2023/03/28 02:07:23;;;;;;;3.38;1.52;;;;;;;;;;4972566;28;20135;-77
2023/03/28 02:09:53;;;;;;;3.80;1.27;;;;;;;;;;4972340;28;20471;-76
2023/03/28 02:12:23;;;;;;;2.55;1.40;;;;;;;;;;4972488;28;20041;-78
2023/03/28 02:14:51;;;;;;;1.50;1.00;;;;;;;;;;4972290;28;20027;-76
2023/03/28 02:17:19;;;;;;;1.98;1.35;;;;;;;;;;4972570;28;20077;-76
2023/03/28 02:19:54;;;;;;;1.65;1.13;;;;;;;;;;4972474;28;20106;-76
2023/03/28 02:22:27;;;;;;;3.08;1.27;;;;;;;;;;4972339;28;20050;-77
2023/03/28 02:24:52;;;;;;;1.60;1.10;;;;;;;;;;4972354;28;20101;-76
2023/03/28 02:27:19;;;;;;;1.65;1.10;;;;;;;;;;4971992;28;20039;-78
2023/03/28 02:29:46;;;;;;;1.77;1.10;;;;;;;;;;4972202;28;20089;-77
2023/03/28 02:32:13;;;;;;;3.28;1.75;;;;;;;;;;4972209;28;20034;-74
2023/03/28 02:34:40;;;;;;;2.65;1.60;;;;;;;;;;4995601;28;20044;-73
2023/03/28 02:37:41;;;;;;;1.23;1.02;;;;;;;;;;5052913;28;20025;-76
2023/03/28 02:40:07;;;;;;;1.63;1.15;;;;;;;;;;5051354;28;20029;-77
2023/03/28 02:42:47;;;;;;;2.15;1.60;;;;;;;;;;5052140;28;20021;-75
2023/03/28 02:45:35;;;;;;;1.33;0.98;;;;;;;;;;5052176;28;20025;-75
2023/03/28 02:48:35;;;;;;;2.45;1.33;;;;;;;;;;5052180;28;20032;-78
2023/03/28 02:51:16;;;;;;;3.88;1.40;;;;;;;;;;5052078;28;20048;-71
2023/03/28 02:53:50;;;;;;;1.98;1.20;;;;;;;;;;5052636;28;20094;-75
2023/03/28 02:56:30;;;;;;;1.67;1.30;;;;;;;;;;5052545;28;20083;-76
2023/03/28 02:59:02;;;;;;;1.20;0.93;;;;;;;;;;5052338;28;20044;-77
2023/03/28 03:01:29;;;;;;;2.20;1.38;;;;;;;;;;5052426;28;20033;-77
2023/03/28 03:03:54;;;;;;;2.70;1.70;;;;;;;;;;5052537;28;20025;-73
2023/03/28 03:06:20;;;;;;;2.83;1.55;;;;;;;;;;5052444;28;20112;-74
2023/03/28 03:08:46;;;;;;;4.05;1.63;;;;;;;;;;5052461;28;20034;-76
2023/03/28 03:11:11;;;;;;;2.38;1.65;;;;;;;;;;5051496;28;20028;-74
2023/03/28 03:13:37;;;;;;;3.20;1.50;;;;;;;;;;5052353;28;20351;-73
2023/03/28 03:16:04;;;;;;;3.47;1.65;;;;;;;;;;5052414;28;20060;-73
2023/03/28 03:18:29;;;;;;;7.32;2.10;;;;;;;;;;5052288;28;20504;-75
2023/03/28 03:20:55;;;;;;;4.03;1.83;;;;;;;;;;5052288;28;20021;-68
2023/03/28 03:23:20;;;;;;;2.28;1.60;;;;;;;;;;5052215;28;20493;-70
2023/03/28 03:25:49;;;;;;;6.53;2.97;;;;;;;;;;5051861;28;20029;-70
2023/03/28 03:28:15;;;;;;;2.72;1.50;;;;;;;;;;5052089;28;20057;-72
2023/03/28 03:30:41;;;;;;;2.85;1.70;;;;;;;;;;5052184;28;20052;-68
2023/03/28 03:33:09;;;;;;;3.10;1.83;;;;;;;;;;5051975;28;20512;-77
2023/03/28 03:35:35;;;;;;;1.45;1.35;;;;;;;;;;5034120;28;20033;-77
2023/03/28 03:38:00;;;;;;;5.22;1.88;;;;;;;;;;5034145;28;20036;-77
2023/03/28 03:40:25;;;;;;;3.67;1.67;;;;;;;;;;5051789;28;20412;-77
2023/03/28 03:42:51;;;;;;;2.60;2.33;;;;;;;;;;5051811;28;20044;-76
2023/03/28 03:45:16;;;;;;;1.90;1.30;;;;;;;;;;5052186;28;20409;-77
2023/03/28 03:47:42;;;;;;;1.83;1.30;;;;;;;;;;5051967;28;20124;-77
2023/03/28 03:50:08;;;;;;;3.47;1.45;;;;;;;;;;5052048;28;20029;-77
2023/03/28 03:52:34;;;;;;;3.50;1.85;;;;;;;;;;5055357;28;20040;-77
2023/03/28 03:55:00;;;;;;;4.60;2.25;;;;;;;;;;5055720;28;20029;-77
2023/03/28 03:57:26;;;;;;;2.40;1.50;;;;;;;;;;5055774;28;20104;-74
2023/03/28 03:59:52;;;;;;;2.15;1.55;;;;;;;;;;5055554;28;20044;-77
2023/03/28 04:02:17;;;;;;;4.07;3.00;;;;;;;;;;5055981;28;20025;-77
2023/03/28 04:04:44;;;;;;;2.47;1.67;;;;;;;;;;5055662;28;20017;-75
2023/03/28 04:07:11;;;;;;;4.35;2.17;;;;;;;;;;5055520;28;20033;-76
2023/03/28 04:09:36;;;;;;;4.80;1.80;;;;;;;;;;5055449;28;20690;-75
2023/03/28 04:12:03;;;;;;;5.88;3.53;;;;;;;;;;5055536;28;20033;-76
2023/03/28 04:14:29;;;;;;;4.10;2.05;;;;;;;;;;5055485;28;20025;-77
2023/03/28 04:16:55;;;;;;;6.93;2.03;;;;;;;;;;5055461;28;20080;-71
2023/03/28 04:19:23;;;;;;;3.03;1.60;;;;;;;;;;5055143;28;20033;-77
2023/03/28 04:21:51;;;;;;;1.95;1.13;;;;;;;;;;5055444;28;20024;-77
2023/03/28 04:24:23;;;;;;;2.28;1.50;;;;;;;;;;5055174;28;20037;-74
2023/03/28 04:26:49;;;;;;;3.67;2.38;;;;;;;;;;5055424;28;20390;-72
2023/03/28 04:29:15;;;;;;;3.17;1.45;;;;;;;;;;5037667;28;20036;-76
2023/03/28 04:31:48;;;;;;;1.63;1.33;;;;;;;;;;5055182;28;20115;-72
2023/03/28 04:34:15;;;;;;;3.63;1.90;;;;;;;;;;5036891;28;20082;-67
2023/03/28 04:36:40;;;;;;;2.80;1.73;;;;;;;;;;5055212;28;20029;-70
2023/03/28 04:39:07;;;;;;;1.98;1.40;;;;;;;;;;5054821;28;20335;-74
2023/03/28 04:41:33;;;;;;;3.15;1.85;;;;;;;;;;5054450;28;20048;-64
2023/03/28 04:43:58;;;;;;;3.00;1.90;;;;;;;;;;5054814;28;20063;-69
2023/03/28 04:46:24;;;;;;;4.13;1.80;;;;;;;;;;5054806;28;20017;-68
2023/03/28 04:48:50;;;;;;;3.80;1.88;;;;;;;;;;5055035;28;20025;-68
2023/03/28 04:51:15;;;;;;;4.90;2.35;;;;;;;;;;5054656;28;20505;-63
2023/03/28 04:53:41;;;;;;;7.13;2.92;;;;;;;;;;5054483;28;20076;-68
2023/03/28 04:56:07;;;;;;;4.20;2.08;;;;;;;;;;5054757;28;20029;-71
2023/03/28 04:58:33;;;;;;;2.65;1.63;;;;;;;;;;5054515;28;20131;-68
2023/03/28 05:01:02;;;;;;;3.08;1.92;;;;;;;;;;5054456;28;20040;-63
2023/03/28 05:03:28;;;;;;;4.45;2.20;;;;;;;;;;5053468;28;20124;-62
2023/03/28 05:05:53;;;;;;;3.38;2.08;;;;;;;;;;5054476;28;20036;-64
2023/03/28 05:08:21;;;;;;;3.03;1.88;;;;;;;;;;5053628;28;20497;-71
2023/03/28 05:10:47;;;;;;;4.32;2.05;;;;;;;;;;5053683;28;20036;-70
2023/03/28 05:13:14;;;;;;;3.85;2.17;;;;;;;;;;5053643;28;20021;-74
2023/03/28 05:15:41;;;;;;;3.47;1.75;;;;;;;;;;5053564;28;20029;-66
2023/03/28 05:18:06;;;;;;;4.22;1.92;;;;;;;;;;5054069;28;20037;-70
2023/03/28 05:20:33;;;;;;;5.28;1.75;;;;;;;;;;5054281;28;20043;-71
2023/03/28 05:23:00;;;;;;;3.78;1.75;;;;;;;;;;5053814;28;20366;-70
2023/03/28 05:25:25;;;;;;;5.45;2.15;;;;;;;;;;5054071;28;20025;-70
2023/03/28 05:27:51;;;;;;;2.65;1.65;;;;;;;;;;5053833;28;20055;-74
2023/03/28 05:30:16;;;;;;;3.38;1.40;;;;;;;;;;5053867;28;20036;-67
2023/03/28 05:32:42;;;;;;;3.17;1.98;;;;;;;;;;5053397;28;20044;-69
2023/03/28 05:35:10;;;;;;;2.20;1.33;;;;;;;;;;5053846;28;20036;-70
2023/03/28 05:37:36;;;;;;;3.00;1.70;;;;;;;;;;5053693;28;20032;-69
2023/03/28 05:40:06;;;;;;;3.50;1.95;;;;;;;;;;5053793;28;20028;-67
2023/03/28 05:42:33;;;;;;;3.42;1.52;;;;;;;;;;5053726;28;20051;-69
2023/03/28 05:44:58;;;;;;;3.05;1.73;;;;;;;;;;5053570;28;20474;-70
2023/03/28 05:47:24;;;;;;;4.35;1.65;;;;;;;;;;5053482;28;20082;-74
2023/03/28 05:49:49;;;;;;;3.38;2.00;;;;;;;;;;5053729;28;20041;-73
2023/03/28 05:52:15;;;;;;;3.30;1.90;;;;;;;;;;5053131;28;20388;-73
2023/03/28 05:54:40;;;;;;;3.17;1.63;;;;;;;;;;5053536;28;20087;-74
2023/03/28 05:57:06;;;;;;;2.97;1.75;;;;;;;;;;5053486;28;20099;-75
2023/03/28 05:59:31;;;;;;;3.35;2.10;;;;;;;;;;5053564;28;20028;-74
2023/03/28 06:01:57;;;;;;;3.60;1.70;;;;;;;;;;5053443;28;20025;-75
2023/03/28 06:04:24;;;;;;;2.72;1.55;;;;;;;;;;5053393;28;20025;-74
2023/03/28 06:06:50;;;;;;;4.68;1.73;;;;;;;;;;5053254;28;20363;-74
2023/03/28 06:09:16;;;;;;;32.65;14.88;;;;;;;;;;5053235;28;20043;-75
2023/03/28 06:11:42;;;;;;;95.72;32.33;;;;;;;;;;5053037;28;20096;-75
2023/03/28 06:14:08;;;;;;;57.17;25.10;;;;;;;;;;5052888;28;20032;-72
2023/03/28 06:16:34;;;;;;;35.47;13.15;;;;;;;;;;5053218;28;20051;-66
2023/03/28 06:19:00;;;;;;;22.60;9.77;;;;;;;;;;5052863;28;20112;-62
2023/03/28 06:21:25;;;;;;;30.02;14.13;;;;;;;;;;5053057;28;20025;-67
2023/03/28 06:23:50;;;;;;;7.07;2.08;;;;;;;;;;5053061;28;20108;-68
2023/03/28 06:26:17;;;;;;;4.47;2.55;;;;;;;;;;5052975;28;20036;-65
2023/03/28 06:28:42;;;;;;;8.15;3.63;;;;;;;;;;5052839;28;20033;-65
2023/03/28 06:31:10;;;;;;;12.57;7.07;;;;;;;;;;5052864;28;20393;-69
2023/03/28 06:33:37;;;;;;;8.18;3.42;;;;;;;;;;5052434;28;20029;-66
2023/03/28 06:36:03;;;;;;;10.32;4.53;;;;;;;;;;5052573;28;20034;-70
2023/03/28 06:38:28;;;;;;;6.70;4.50;;;;;;;;;;5052739;28;20090;-75
2023/03/28 06:40:54;;;;;;;8.32;5.03;;;;;;;;;;5052845;28;20020;-68
2023/03/28 06:43:19;;;;;;;4.88;3.25;;;;;;;;;;5052826;28;20112;-68
2023/03/28 06:45:45;;;;;;;12.50;5.65;;;;;;;;;;5052672;28;20470;-69
2023/03/28 06:48:10;;;;;;;10.85;5.85;;;;;;;;;;5052367;28;20457;-62
2023/03/28 06:50:36;;;;;;;5.55;2.80;;;;;;;;;;5052334;28;20076;-63
2023/03/28 06:53:01;;;;;;;3.53;2.03;;;;;;;;;;5052615;28;20029;-62
2023/03/28 06:55:27;;;;;;;3.85;2.97;;;;;;;;;;5052729;28;20016;-65
2023/03/28 06:57:52;;;;;;;7.25;3.45;;;;;;;;;;5052612;28;20125;-63
2023/03/28 07:00:18;;;;;;;14.07;7.57;;;;;;;;;;5050224;28;20013;-63
2023/03/28 07:02:43;;;;;;;16.88;7.15;;;;;;;;;;5013308;28;20025;-67
2023/03/28 07:05:10;;;;;;;6.82;2.70;;;;;;;;;;5013134;28;20026;-62
2023/03/28 07:07:35;;;;;;;5.78;3.60;;;;;;;;;;5012839;28;20032;-66
2023/03/28 07:10:00;;;;;;;9.32;4.88;;;;;;;;;;5013050;28;20382;-74
2023/03/28 07:12:26;;;;;;;65.97;31.65;;;;;;;;;;5012960;28;20483;-72
2023/03/28 07:14:51;;;;;;;7.05;3.42;;;;;;;;;;5013356;28;20029;-63
2023/03/28 07:17:18;;;;;;;6.07;2.30;;;;;;;;;;5029434;28;20022;-62
2023/03/28 07:19:44;;;;;;;9.43;4.82;;;;;;;;;;5022785;28;20013;-66
2023/03/28 07:22:10;;;;;;;23.25;11.52;;;;;;;;;;5019576;28;20029;-64
2023/03/28 07:24:35;;;;;;;10.60;5.97;;;;;;;;;;5032102;28;20489;-65
2023/03/28 07:27:02;;;;;;;4.43;2.38;;;;;;;;;;5009665;28;20025;-62
2023/03/28 07:29:27;;;;;;;3.30;1.70;;;;;;;;;;5025781;28;20124;-65
2023/03/28 07:31:53;;;;;;;23.15;9.93;;;;;;;;;;5029942;28;20465;-64
2023/03/28 07:34:19;;;;;;;16.92;6.75;;;;;;;;;;5035937;28;20474;-66
2023/03/28 07:36:44;;;;;;;39.42;18.27;;;;;;;;;;5038521;28;20394;-69
2023/03/28 07:39:10;;;;;;;42.35;17.13;;;;;;;;;;5038320;28;20062;-62
2023/03/28 07:41:35;;;;;;;48.92;18.02;;;;;;;;;;5038502;28;20025;-64
2023/03/28 07:44:01;;;;;;;45.42;16.88;;;;;;;;;;5038574;28;20089;-62
2023/03/28 07:46:26;;;;;;;27.00;12.10;;;;;;;;;;5038535;28;20164;-62
2023/03/28 07:48:54;;;;;;;35.25;11.65;;;;;;;;;;5038475;28;20033;-62
2023/03/28 07:51:20;;;;;;;27.15;10.05;;;;;;;;;;5038061;28;20049;-66
2023/03/28 07:53:45;;;;;;;63.20;19.50;;;;;;;;;;5038488;28;20026;-68
2023/03/28 07:56:11;;;;;;;18.73;6.80;;;;;;;;;;5038481;28;20406;-62
2023/03/28 07:58:38;;;;;;;22.40;7.68;;;;;;;;;;5038405;28;20033;-66
2023/03/28 08:01:05;;;;;;;5.63;3.00;;;;;;;;;;5037845;28;20041;-71
2023/03/28 08:03:31;;;;;;;8.07;2.95;;;;;;;;;;5038409;28;20021;-61
2023/03/28 08:06:01;;;;;;;3.97;2.70;;;;;;;;;;5038210;28;20503;-64
2023/03/28 08:08:28;;;;;;;4.28;1.92;;;;;;;;;;5038202;28;20029;-62
2023/03/28 08:10:53;;;;;;;3.95;1.92;;;;;;;;;;5038271;28;20036;-72
2023/03/28 08:13:19;;;;;;;3.20;1.60;;;;;;;;;;5038222;28;20409;-61
2023/03/28 08:15:48;;;;;;;2.78;1.77;;;;;;;;;;5038098;28;20025;-64
2023/03/28 08:18:19;;;;;;;2.45;1.35;;;;;;;;;;5038411;28;20025;-73
2023/03/28 08:20:48;;;;;;;2.05;1.10;;;;;;;;;;5038385;28;20117;-72
2023/03/28 08:23:14;;;;;;;3.00;1.20;;;;;;;;;;5038177;28;20070;-73
2023/03/28 08:25:39;;;;;;;3.38;1.63;;;;;;;;;;5038295;28;20025;-74
2023/03/28 08:28:05;;;;;;;2.08;1.10;;;;;;;;;;5037725;28;20030;-73
2023/03/28 08:30:31;;;;;;;2.97;2.05;;;;;;;;;;5038229;28;20017;-66
2023/03/28 08:32:56;;;;;;;3.80;2.25;;;;;;;;;;5042217;28;20045;-71
2023/03/28 08:35:22;;;;;;;1.80;1.30;;;;;;;;;;5058085;28;20415;-69
2023/03/28 08:37:48;;;;;;;3.00;1.40;;;;;;;;;;5056474;28;20108;-61
2023/03/28 08:40:17;;;;;;;2.55;1.38;;;;;;;;;;5055013;28;20021;-69
2023/03/28 08:43:05;;;;;;;2.93;1.30;;;;;;;;;;5055025;28;20064;-65
2023/03/28 08:46:03;;;;;;;2.67;1.40;;;;;;;;;;5054648;28;20252;-67
2023/03/28 08:48:38;;;;;;;2.15;1.50;;;;;;;;;;4973847;28;20093;-62
2023/03/28 08:51:31;;;;;;;2.28;1.58;;;;;;;;;;4973598;28;20050;-64
2023/03/28 08:54:25;;;;;;;1.20;1.10;;;;;;;;;;4973857;28;20046;-64
2023/03/28 08:56:59;;;;;;;2.85;1.30;;;;;;;;;;4966939;28;20066;-76
2023/03/28 08:59:34;;;;;;;4.10;1.75;;;;;;;;;;4973283;28;20042;-64
2023/03/28 09:02:00;;;;;;;2.53;1.30;;;;;;;;;;4973653;28;20026;-63
2023/03/28 09:04:34;;;;;;;2.65;1.27;;;;;;;;;;4973536;28;20050;-63
2023/03/28 09:07:13;;;;;;;2.05;1.40;;;;;;;;;;4973219;28;20424;-66
2023/03/28 09:10:03;;;;;;;1.55;1.10;;;;;;;;;;4973525;28;20077;-67
2023/03/28 09:12:40;;;;;;;2.22;1.40;;;;;;;;;;4957305;28;20030;-66
2023/03/28 09:15:18;;;;;;;4.35;2.00;;;;;;;;;;4972910;28;20216;-66
2023/03/28 09:17:53;;;;;;;2.25;1.48;;;;;;;;;;4955604;28;20047;-66
2023/03/28 09:20:36;;;;;;;3.90;1.38;;;;;;;;;;4953874;28;20111;-67
2023/03/28 09:23:21;;;;;;;4.20;1.73;;;;;;;;;;4959283;28;20401;-76
2023/03/28 09:26:10;;;;;;;2.33;1.13;;;;;;;;;;5034055;28;20025;-64
2023/03/28 09:28:51;;;;;;;4.07;1.15;;;;;;;;;;5033833;28;20044;-68
2023/03/28 09:31:19;;;;;;;3.65;1.58;;;;;;;;;;5033912;28;20029;-71
2023/03/28 09:33:47;;;;;;;3.05;1.50;;;;;;;;;;5044393;28;20021;-67
2023/03/28 09:36:22;;;;;;;4.47;2.30;;;;;;;;;;5053765;28;20071;-70
2023/03/28 09:38:59;;;;;;;5.80;1.50;;;;;;;;;;5053837;28;20029;-73
2023/03/28 09:41:33;;;;;;;2.30;1.20;;;;;;;;;;5053932;28;20021;-66
2023/03/28 09:44:02;;;;;;;2.17;1.38;;;;;;;;;;5053504;28;20478;-61
2023/03/28 09:46:39;;;;;;;3.55;1.30;;;;;;;;;;5053380;28;20043;-64
2023/03/28 09:49:04;;;;;;;4.00;1.60;;;;;;;;;;5052760;28;20090;-62
2023/03/28 09:51:30;;;;;;;6.45;1.67;;;;;;;;;;5053339;28;20049;-65
2023/03/28 09:53:55;;;;;;;1.63;1.25;;;;;;;;;;5053506;28;20024;-69
2023/03/28 09:56:28;;;;;;;2.08;1.10;;;;;;;;;;5053435;28;20427;-62
2023/03/28 09:58:53;;;;;;;2.33;1.27;;;;;;;;;;5053322;28;20028;-64
2023/03/28 10:01:24;;;;;;;2.65;1.23;;;;;;;;;;5053374;28;20021;-62
2023/03/28 10:03:55;;;;;;;2.33;1.10;;;;;;;;;;5053402;28;20067;-64
2023/03/28 10:06:26;;;;;;;2.45;1.20;;;;;;;;;;5052854;28;20062;-61
2023/03/28 10:08:52;;;;;;;1.70;1.10;;;;;;;;;;5052951;28;20024;-64
2023/03/28 10:11:20;;;;;;;1.98;1.20;;;;;;;;;;5034971;28;20044;-65
2023/03/28 10:13:48;;;;;;;2.70;1.40;;;;;;;;;;5053145;28;20032;-66
2023/03/28 10:16:21;;;;;;;2.90;1.50;;;;;;;;;;5047478;28;20045;-62
2023/03/28 10:18:47;;;;;;;4.32;2.08;;;;;;;;;;5033335;28;20101;-63
2023/03/28 10:21:15;;;;;;;2.35;1.27;;;;;;;;;;5033082;28;20505;-74
2023/03/28 10:23:46;;;;;;;1.92;1.25;;;;;;;;;;5033155;28;20033;-70
2023/03/28 10:26:20;;;;;;;2.03;1.20;;;;;;;;;;5012808;28;20021;-69
2023/03/28 10:28:47;;;;;;;2.38;1.58;;;;;;;;;;5012915;28;20030;-73
2023/03/28 10:31:30;;;;;;;2.58;1.50;;;;;;;;;;5012863;28;20030;-62
2023/03/28 10:33:58;;;;;;;2.55;1.63;;;;;;;;;;5025253;28;20037;-62
2023/03/28 10:36:31;;;;;;;2.80;1.60;;;;;;;;;;5032834;28;20026;-68
2023/03/28 10:38:57;;;;;;;3.03;1.27;;;;;;;;;;5032659;28;20087;-74
2023/03/28 10:41:25;;;;;;;3.53;1.50;;;;;;;;;;5032541;28;20116;-75
2023/03/28 10:43:51;;;;;;;1.88;1.30;;;;;;;;;;5032759;28;20417;-71
2023/03/28 10:46:29;;;;;;;2.97;1.58;;;;;;;;;;5032432;28;20033;-75
2023/03/28 10:49:06;;;;;;;2.90;1.25;;;;;;;;;;5032521;28;20499;-72
2023/03/28 10:51:32;;;;;;;2.90;1.20;;;;;;;;;;5032490;28;20132;-71
2023/03/28 10:54:25;;;;;;;2.83;1.40;;;;;;;;;;5032572;28;20100;-71
2023/03/28 10:57:21;;;;;;;1.88;1.27;;;;;;;;;;5032570;28;20021;-64
2023/03/28 10:59:54;;;;;;;1.60;1.20;;;;;;;;;;5032479;28;20037;-67
2023/03/28 11:02:41;;;;;;;3.50;1.20;;;;;;;;;;5031642;28;20029;-74
2023/03/28 11:05:15;;;;;;;1.92;1.02;;;;;;;;;;5032141;28;20029;-61
2023/03/28 11:08:04;;;;;;;6.60;1.25;;;;;;;;;;5032164;28;20022;-66
2023/03/28 11:10:51;;;;;;;1.30;1.13;;;;;;;;;;5032136;28;20422;-61
2023/03/28 11:13:27;;;;;;;2.38;1.38;;;;;;;;;;5031104;28;20025;-62
2023/03/28 11:16:36;;;;;;;3.03;1.50;;;;;;;;;;5032184;28;20033;-64
2023/03/28 11:19:29;;;;;;;2.78;1.45;;;;;;;;;;4990450;28;20053;-67
2023/03/28 11:22:12;;;;;;;3.80;1.30;;;;;;;;;;4990531;28;20030;-69
2023/03/28 11:25:00;;;;;;;2.88;1.38;;;;;;;;;;4990347;28;20031;-68
2023/03/28 11:27:45;;;;;;;1.88;1.30;;;;;;;;;;4990476;28;20365;-67
2023/03/28 11:30:16;;;;;;;1.23;1.00;;;;;;;;;;4990763;28;20038;-66
2023/03/28 11:32:46;;;;;;;;;;;;;;;;;;4992957;28;20105;-64
2023/03/28 11:35:20;;;;;;;1.23;1.00;;;;;;;;;;5009903;28;19917;-65
2023/03/28 11:38:09;;;;;;;9.75;1.75;;;;;;;;;;5010008;28;20225;-70
2023/03/28 11:41:03;;;;;;;1.77;1.10;;;;;;;;;;5010149;28;20038;-74
2023/03/28 11:44:04;;;;;;;1.77;1.10;;;;;;;;;;5010061;28;20080;-66
2023/03/28 11:46:34;;;;;;;1.27;0.90;;;;;;;;;;4999815;28;20038;-64
2023/03/28 11:49:05;;;;;;;2.42;1.10;;;;;;;;;;5009801;28;20134;-68
2023/03/28 11:51:41;;;;;;;3.78;1.13;;;;;;;;;;5009672;28;20062;-71
2023/03/28 11:54:27;;;;;;;5.80;1.25;;;;;;;;;;5012006;28;20109;-63
2023/03/28 11:57:01;;;;;;;1.33;0.90;;;;;;;;;;5051807;28;20029;-65
2023/03/28 11:59:47;;;;;;;4.38;1.10;;;;;;;;;;5051459;28;20032;-63
2023/03/28 12:02:42;;;;;;;3.20;0.80;;;;;;;;;;5051995;28;20029;-64
2023/03/28 12:05:10;;;;;;;2.70;1.02;;;;;;;;;;5051529;28;20473;-63
2023/03/28 12:07:59;;;;;;;1.70;1.00;;;;;;;;;;5051429;28;20025;-68
2023/03/28 12:10:34;;;;;;;3.38;1.40;;;;;;;;;;5051713;28;20477;-65
2023/03/28 12:13:20;;;;;;;1.00;0.90;;;;;;;;;;5053790;28;20064;-64
2023/03/28 12:15:50;;;;;;;1.88;1.00;;;;;;;;;;5053650;28;20032;-69
2023/03/28 12:18:26;;;;;;;1.80;1.08;;;;;;;;;;5035527;28;20463;-64
2023/03/28 12:20:59;;;;;;;1.33;0.98;;;;;;;;;;5035358;28;20490;-64
2023/03/28 12:24:00;;;;;;;1.83;1.00;;;;;;;;;;5035182;28;20041;-73
2023/03/28 12:26:53;;;;;;;2.05;1.23;;;;;;;;;;4955108;29;20122;-63
2023/03/28 12:29:34;;;;;;;2.90;1.00;;;;;;;;;;4954721;29;20186;-64
2023/03/28 12:32:16;;;;;;;3.03;1.13;;;;;;;;;;4953995;28;20032;-65
2023/03/28 12:35:04;;;;;;;3.08;1.10;;;;;;;;;;4972937;28;20053;-63
2023/03/28 12:37:50;;;;;;;1.73;1.08;;;;;;;;;;4973935;28;20034;-68
2023/03/28 12:40:35;;;;;;;3.67;0.98;;;;;;;;;;4879034;29;20112;-66
2023/03/28 12:43:02;;;;;;;1.25;0.90;;;;;;;;;;4867537;29;20050;-66
2023/03/28 12:45:32;;;;;;;1.83;0.80;;;;;;;;;;4860058;29;20579;-70
2023/03/28 12:48:03;;;;;;;1.92;1.00;;;;;;;;;;4860186;29;20061;-71
2023/03/28 12:50:43;;;;;;;1.38;0.93;;;;;;;;;;4859569;29;21084;-67
2023/03/28 12:53:11;;;;;;;2.60;1.17;;;;;;;;;;4859717;29;20037;-66
2023/03/28 12:55:42;;;;;;;6.47;3.60;;;;;;;;;;4860183;29;20456;-75
2023/03/28 12:58:26;;;;;;;4.78;1.00;;;;;;;;;;4860117;29;20484;-66
2023/03/28 13:01:01;;;;;;;3.28;1.15;;;;;;;;;;4863692;29;20056;-76
2023/03/28 13:04:00;;;;;;;1.02;0.80;;;;;;;;;;4935048;29;20039;-65
2023/03/28 13:06:39;;;;;;;1.40;0.80;;;;;;;;;;4934643;29;20030;-64
2023/03/28 13:09:22;;;;;;;6.03;3.70;;;;;;;;;;4934864;29;20491;-70
2023/03/28 13:12:00;;;;;;;2.63;1.30;;;;;;;;;;4934880;29;20056;-73
2023/03/28 13:14:32;;;;;;;3.17;1.40;;;;;;;;;;4934830;29;20056;-75
2023/03/28 13:17:22;;;;;;;3.05;1.30;;;;;;;;;;4967458;28;20621;-78
2023/03/28 13:20:06;;;;;;;4.15;1.67;;;;;;;;;;5034026;28;20430;-75
2023/03/28 13:22:33;;;;;;;3.33;1.02;;;;;;;;;;5034169;28;20022;-77
2023/03/28 13:25:33;;;;;;;2.05;1.17;;;;;;;;;;5033265;28;20113;-72
2023/03/28 13:28:09;;;;;;;1.98;1.30;;;;;;;;;;5033955;28;20487;-77
2023/03/28 13:30:34;;;;;;;8.77;1.13;;;;;;;;;;5034037;28;20033;-73
2023/03/28 13:33:06;;;;;;;2.17;1.05;;;;;;;;;;5038182;28;20532;-76
2023/03/28 13:35:44;;;;;;;1.95;0.98;;;;;;;;;;5053752;28;20056;-77
2023/03/28 13:38:26;;;;;;;6.28;1.60;;;;;;;;;;5034480;28;20071;-73
2023/03/28 13:41:05;;;;;;;2.22;0.90;;;;;;;;;;5034011;28;20022;-76
2023/03/28 13:43:34;;;;;;;5.28;1.10;;;;;;;;;;5033845;28;20057;-76
2023/03/28 13:46:06;;;;;;;2.25;1.00;;;;;;;;;;5033943;28;20467;-78
2023/03/28 13:48:36;;;;;;;1.70;0.95;;;;;;;;;;5033512;28;20474;-73
2023/03/28 13:51:05;;;;;;;2.20;1.13;;;;;;;;;;5033375;28;20123;-69
2023/03/28 13:53:34;;;;;;;2.95;1.13;;;;;;;;;;5033605;28;20030;-67
2023/03/28 13:56:28;;;;;;;1.80;0.98;;;;;;;;;;5033642;28;20171;-65
2023/03/28 13:58:56;;;;;;;1.60;1.05;;;;;;;;;;5031860;28;20084;-63
2023/03/28 14:01:32;;;;;;;4.50;1.20;;;;;;;;;;5032936;28;20040;-65
2023/03/28 14:03:57;;;;;;;2.15;1.10;;;;;;;;;;5033299;28;20446;-64
2023/03/28 14:06:26;;;;;;;4.13;1.08;;;;;;;;;;5033246;28;20026;-65
2023/03/28 14:08:57;;;;;;;1.50;1.00;;;;;;;;;;5033265;28;20029;-69
2023/03/28 14:11:29;;;;;;;2.22;1.50;;;;;;;;;;5033339;28;20033;-67
2023/03/28 14:14:10;;;;;;;1.15;0.95;;;;;;;;;;5033192;28;20029;-69
2023/03/28 14:16:36;;;;;;;4.72;1.10;;;;;;;;;;5033050;28;20056;-63
2023/03/28 14:19:02;;;;;;;1.25;0.95;;;;;;;;;;5032572;28;20053;-63
2023/03/28 14:21:28;;;;;;;1.52;0.93;;;;;;;;;;5033137;28;20083;-62
2023/03/28 14:23:57;;;;;;;3.08;1.20;;;;;;;;;;5032823;28;20029;-62
2023/03/28 14:26:26;;;;;;;2.00;0.90;;;;;;;;;;5032910;28;20025;-64
2023/03/28 14:28:56;;;;;;;2.85;1.00;;;;;;;;;;5032756;28;20029;-65
2023/03/28 14:31:37;;;;;;;3.08;1.13;;;;;;;;;;5032870;28;20170;-65
2023/03/28 14:34:15;;;;;;;3.58;2.15;;;;;;;;;;5045294;28;20025;-69
2023/03/28 14:37:05;;;;;;;1.50;0.90;;;;;;;;;;5052682;28;20504;-69
2023/03/28 14:39:33;;;;;;;7.03;1.00;;;;;;;;;;5052776;28;20100;-63
2023/03/28 14:42:02;;;;;;;3.00;1.10;;;;;;;;;;5052694;28;20031;-74
2023/03/28 14:44:30;;;;;;;2.28;1.25;;;;;;;;;;5052133;28;20059;-63
2023/03/28 14:46:57;;;;;;;1.38;0.95;;;;;;;;;;5012613;28;20483;-67
2023/03/28 14:49:25;;;;;;;1.05;0.85;;;;;;;;;;5012774;28;20029;-68
2023/03/28 14:51:58;;;;;;;1.92;0.90;;;;;;;;;;5012692;28;20042;-66
2023/03/28 14:54:38;;;;;;;2.47;1.10;;;;;;;;;;5012980;28;20112;-64
2023/03/28 14:57:04;;;;;;;1.25;0.75;;;;;;;;;;5012379;28;20452;-67
2023/03/28 14:59:39;;;;;;;2.45;1.33;;;;;;;;;;5012858;28;20087;-63
2023/03/28 15:02:11;;;;;;;2.95;1.75;;;;;;;;;;5012413;28;20030;-77
2023/03/28 15:04:37;;;;;;;2.30;1.48;;;;;;;;;;5012671;28;20053;-67
2023/03/28 15:07:03;;;;;;;1.50;0.90;;;;;;;;;;5014311;28;20026;-65
2023/03/28 15:09:32;;;;;;;5.05;1.02;;;;;;;;;;5032406;28;20021;-63
2023/03/28 15:12:04;;;;;;;2.03;1.35;;;;;;;;;;5032283;28;20029;-66